createdAt,value
2022-12-09T00:00:00.281Z,990.74
2022-12-09T00:05:00.289Z,990.69
2022-12-09T00:10:00.303Z,990.74
2022-12-09T00:15:00.079Z,990.69
2022-12-09T00:20:00.197Z,990.63
2022-12-09T00:25:00.335Z,990.59
2022-12-09T00:30:00.135Z,990.7
2022-12-09T00:35:00.370Z,990.72
2022-12-09T00:40:00.107Z,990.66
2022-12-09T00:45:00.161Z,990.72
2022-12-09T00:50:00.344Z,990.69
2022-12-09T00:55:00.249Z,990.67
2022-12-09T01:00:00.225Z,990.6
2022-12-09T01:05:00.230Z,990.64
2022-12-09T01:10:00.388Z,990.67
2022-12-09T01:15:00.327Z,990.71
2022-12-09T01:20:00.151Z,990.7
2022-12-09T01:25:00.172Z,990.76
2022-12-09T01:30:00.177Z,990.8
2022-12-09T01:35:00.094Z,990.78
2022-12-09T01:40:00.116Z,990.75
2022-12-09T01:45:00.334Z,990.68
2022-12-09T01:50:00.201Z,990.83
2022-12-09T01:55:00.117Z,990.82
2022-12-09T02:00:00.226Z,990.72
2022-12-09T02:05:00.278Z,990.64
2022-12-09T02:10:00.167Z,990.6
2022-12-09T02:15:00.180Z,990.66
2022-12-09T02:20:00.097Z,990.57
2022-12-09T02:25:00.184Z,990.58
2022-12-09T02:30:00.256Z,990.57
2022-12-09T02:35:00.207Z,990.52
2022-12-09T02:40:00.172Z,990.57
2022-12-09T02:45:00.164Z,990.5
2022-12-09T02:50:00.190Z,990.54
2022-12-09T02:55:00.120Z,990.44
2022-12-09T03:00:00.176Z,990.37
2022-12-09T03:05:00.465Z,990.4
2022-12-09T03:10:00.457Z,990.36
2022-12-09T03:15:00.240Z,990.36
2022-12-09T03:20:00.256Z,990.31
2022-12-09T03:25:00.156Z,990.31
2022-12-09T03:30:00.139Z,990.16
2022-12-09T03:35:00.097Z,990.22
2022-12-09T03:40:00.078Z,990.13
2022-12-09T03:45:00.336Z,990.16
2022-12-09T03:50:00.491Z,990.17
2022-12-09T03:55:00.282Z,990.17
2022-12-09T04:00:00.195Z,990.18
2022-12-09T04:05:00.226Z,990.09
2022-12-09T04:10:00.457Z,990.07
2022-12-09T04:15:00.507Z,990.1
2022-12-09T04:20:00.122Z,989.97
2022-12-09T04:25:00.081Z,989.37
2022-12-09T04:30:00.143Z,989.42
2022-12-09T04:35:00.106Z,989.43
2022-12-09T04:40:00.207Z,989.42
2022-12-09T04:45:00.198Z,989.5
2022-12-09T04:50:00.567Z,989.52
2022-12-09T04:55:00.107Z,989.42
2022-12-09T05:00:00.521Z,989.4
2022-12-09T05:05:00.581Z,989.46
2022-12-09T05:10:00.340Z,989.51
2022-12-09T05:15:00.241Z,989.4
2022-12-09T05:20:00.323Z,989.37
2022-12-09T05:25:00.494Z,989.27
2022-12-09T05:30:00.185Z,989.29
2022-12-09T05:35:00.231Z,989.26
2022-12-09T05:40:00.505Z,989.33
2022-12-09T05:45:00.415Z,989.3
2022-12-09T05:50:04.456Z,989.26
2022-12-09T05:55:00.400Z,989.22
2022-12-09T06:00:00.206Z,989.3
2022-12-09T06:05:00.183Z,989.24
2022-12-09T06:10:00.334Z,989.35
2022-12-09T06:15:00.189Z,989.29
2022-12-09T06:20:00.417Z,989.22
2022-12-09T06:25:00.092Z,989.2
2022-12-09T06:30:00.142Z,989.21
2022-12-09T06:35:00.451Z,989.27
2022-12-09T06:40:00.191Z,989.24
2022-12-09T06:45:00.110Z,989.32
2022-12-09T06:50:06.114Z,989.31
2022-12-09T06:55:00.316Z,989.35
2022-12-09T07:00:00.532Z,989.34
2022-12-09T07:05:00.201Z,989.4
2022-12-09T07:10:00.343Z,989.44
2022-12-09T07:15:00.217Z,989.42
2022-12-09T07:20:05.069Z,989.36
2022-12-09T07:25:00.312Z,989.39
2022-12-09T07:30:00.457Z,989.42
2022-12-09T07:35:00.342Z,989.44
2022-12-09T07:40:00.336Z,989.49
2022-12-09T07:45:00.252Z,989.48
2022-12-09T07:50:04.608Z,989.54
2022-12-09T07:55:00.182Z,989.57
2022-12-09T08:00:00.627Z,989.52
2022-12-09T08:05:00.185Z,989.45
2022-12-09T08:10:00.268Z,989.55
2022-12-09T08:15:00.239Z,989.65
2022-12-09T08:20:00.327Z,989.56
2022-12-09T08:25:00.341Z,989.58
2022-12-09T08:30:00.693Z,989.63
2022-12-09T08:35:00.339Z,989.64
2022-12-09T08:40:00.184Z,989.67
2022-12-09T08:45:02.252Z,989.58
2022-12-09T08:50:00.384Z,989.6
2022-12-09T08:55:00.135Z,989.61
2022-12-09T09:00:00.513Z,989.47
2022-12-09T09:05:00.314Z,989.49
2022-12-09T09:10:00.438Z,989.53
2022-12-09T09:15:00.560Z,989.52
2022-12-09T09:20:00.259Z,989.51
2022-12-09T09:25:00.212Z,989.55
2022-12-09T09:30:00.182Z,989.39
2022-12-09T09:35:00.464Z,989.4
2022-12-09T09:40:00.405Z,989.36
2022-12-09T09:45:00.249Z,989.36
2022-12-09T09:50:00.569Z,989.19
2022-12-09T09:55:00.185Z,989.23
2022-12-09T10:00:05.576Z,989.06
2022-12-09T10:05:00.323Z,989.04
2022-12-09T10:10:00.784Z,988.92
2022-12-09T10:15:00.145Z,988.83
2022-12-09T10:20:00.275Z,988.73
2022-12-09T10:25:00.209Z,988.76
2022-12-09T10:30:00.201Z,988.74
2022-12-09T10:35:00.336Z,988.71
2022-12-09T10:40:00.301Z,988.67
2022-12-09T10:45:00.210Z,988.57
2022-12-09T10:50:00.332Z,988.6
2022-12-09T10:55:00.350Z,988.41
2022-12-09T11:00:00.240Z,988.5
2022-12-09T11:05:00.358Z,988.48
2022-12-09T11:10:00.612Z,988.4
2022-12-09T11:15:00.532Z,988.42
2022-12-09T11:20:00.299Z,988.33
2022-12-09T11:25:00.339Z,988.34
2022-12-09T11:30:00.377Z,988.36
2022-12-09T11:35:00.206Z,988.34
2022-12-09T11:40:00.116Z,988.39
2022-12-09T11:45:00.087Z,988.34
2022-12-09T11:50:00.182Z,988.27
2022-12-09T11:55:00.086Z,988.37
2022-12-09T12:00:00.136Z,988.38
2022-12-09T12:05:00.083Z,988.37
2022-12-09T12:10:00.163Z,988.48
2022-12-09T12:15:00.099Z,988.46
2022-12-09T12:20:00.115Z,988.49
2022-12-09T12:25:00.130Z,988.33
2022-12-09T12:30:00.160Z,988.4
2022-12-09T12:35:00.094Z,988.42
2022-12-09T12:40:00.097Z,988.36
2022-12-09T12:45:00.148Z,988.32
2022-12-09T12:50:00.125Z,988.35
2022-12-09T12:55:00.109Z,988.26
2022-12-09T13:00:00.152Z,988.25
2022-12-09T13:05:00.094Z,988.29
2022-12-09T13:10:00.109Z,988.26
2022-12-09T13:15:00.104Z,988.22
2022-12-09T13:20:00.093Z,988.15
2022-12-09T13:25:00.594Z,988.04
2022-12-09T13:30:00.163Z,988.05
2022-12-09T13:35:00.094Z,988.08
2022-12-09T13:40:00.105Z,988.05
2022-12-09T13:45:00.131Z,988.05
2022-12-09T13:50:00.125Z,988.07
2022-12-09T13:55:00.161Z,988.03
2022-12-09T14:00:00.176Z,988.03
2022-12-09T14:05:00.153Z,987.93
2022-12-09T14:10:00.144Z,987.96
2022-12-09T14:15:00.113Z,987.83
2022-12-09T14:20:00.096Z,987.94
2022-12-09T14:25:00.123Z,987.91
2022-12-09T14:30:00.168Z,987.98
2022-12-09T14:35:00.092Z,987.95
2022-12-09T14:40:00.245Z,988.05
2022-12-09T14:45:00.097Z,987.99
2022-12-09T14:50:00.144Z,988
2022-12-09T14:55:00.109Z,988.03
2022-12-09T15:00:00.100Z,987.94
2022-12-09T15:05:00.337Z,987.98
2022-12-09T15:10:00.139Z,987.98
2022-12-09T15:15:00.109Z,987.88
2022-12-09T15:20:01.209Z,987.84
2022-12-09T15:25:00.105Z,987.82
2022-12-09T15:30:00.182Z,987.81
2022-12-09T15:35:00.111Z,987.91
2022-12-09T15:40:00.159Z,987.91
2022-12-09T15:45:00.143Z,987.94
2022-12-09T15:50:00.234Z,987.98
2022-12-09T15:55:00.151Z,988.01
2022-12-09T16:00:00.174Z,988.04
2022-12-09T16:05:00.112Z,988
2022-12-09T16:10:00.201Z,987.98
2022-12-09T16:15:00.114Z,988.02
2022-12-09T16:20:00.099Z,987.87
2022-12-09T16:25:15.711Z,987.88
2022-12-09T16:30:00.256Z,987.92
2022-12-09T16:35:00.132Z,987.84
2022-12-09T16:40:00.270Z,987.92
2022-12-09T16:45:00.145Z,987.93
2022-12-09T16:50:00.160Z,988.06
2022-12-09T16:55:00.135Z,988.04
2022-12-09T17:00:00.158Z,988.1
2022-12-09T17:05:00.106Z,987.98
2022-12-09T17:10:00.139Z,988.02
2022-12-09T17:15:00.101Z,988.04
2022-12-09T17:20:00.403Z,988
2022-12-09T17:25:00.103Z,987.92
2022-12-09T17:30:00.178Z,987.94
2022-12-09T17:35:00.120Z,987.98
2022-12-09T17:40:03.601Z,988.03
2022-12-09T17:45:00.105Z,988.03
2022-12-09T17:50:00.197Z,988.07
2022-12-09T17:55:00.102Z,988.07
2022-12-09T18:00:00.115Z,988.11
2022-12-09T18:05:00.085Z,988.23
2022-12-09T18:10:00.201Z,988.31
2022-12-09T18:15:00.144Z,988.34
2022-12-09T18:20:00.097Z,988.3
2022-12-09T18:25:00.091Z,988.48
2022-12-09T18:30:00.158Z,988.46
2022-12-09T18:35:00.133Z,988.54
2022-12-09T18:40:00.103Z,988.46
2022-12-09T18:45:00.125Z,988.47
2022-12-09T18:50:00.171Z,988.54
2022-12-09T18:55:00.125Z,988.49
2022-12-09T19:00:00.144Z,988.45
2022-12-09T19:05:00.097Z,988.47
2022-12-09T19:10:00.124Z,988.45
2022-12-09T19:15:00.115Z,988.38
2022-12-09T19:20:00.134Z,988.37
2022-12-09T19:25:00.130Z,988.39
2022-12-09T19:30:00.176Z,988.35
2022-12-09T19:35:00.111Z,988.42
2022-12-09T19:40:00.140Z,988.35
2022-12-09T19:45:01.699Z,988.45
2022-12-09T19:50:00.165Z,988.42
2022-12-09T19:55:00.197Z,988.55
2022-12-09T20:00:00.151Z,988.55
2022-12-09T20:05:00.109Z,988.65
2022-12-09T20:10:00.149Z,988.71
2022-12-09T20:15:00.095Z,988.7
2022-12-09T20:20:00.127Z,988.73
2022-12-09T20:25:00.103Z,988.69
2022-12-09T20:30:00.147Z,988.77
2022-12-09T20:35:03.843Z,988.75
2022-12-09T20:40:00.134Z,988.78
2022-12-09T20:45:00.099Z,988.72
2022-12-09T20:50:00.197Z,988.79
2022-12-09T20:55:00.113Z,988.76
2022-12-09T21:00:00.179Z,988.77
2022-12-09T21:05:00.136Z,988.75
2022-12-09T21:10:00.159Z,988.82
2022-12-09T21:15:00.124Z,988.81
2022-12-09T21:20:00.133Z,988.84
2022-12-09T21:25:00.127Z,989.43
2022-12-09T21:30:00.155Z,989.51
2022-12-09T21:35:00.134Z,989.54
2022-12-09T21:40:00.121Z,989.49
2022-12-09T21:45:00.118Z,989.51
2022-12-09T21:50:00.146Z,989.62
2022-12-09T21:55:00.131Z,989.74
2022-12-09T22:00:00.137Z,989.63
2022-12-09T22:05:00.140Z,989.74
2022-12-09T22:10:00.149Z,989.68
2022-12-09T22:15:00.186Z,989.72
2022-12-09T22:20:22.778Z,989.68
2022-12-09T22:25:00.101Z,989.68
2022-12-09T22:30:00.223Z,989.7
2022-12-09T22:35:00.150Z,989.72
2022-12-09T22:40:00.109Z,989.78
2022-12-09T22:45:00.094Z,989.7
2022-12-09T22:50:00.153Z,989.79
2022-12-09T22:55:00.105Z,989.68
2022-12-09T23:00:00.225Z,989.75
2022-12-09T23:05:00.121Z,989.79
2022-12-09T23:10:00.171Z,989.73
2022-12-09T23:15:00.133Z,989.86
2022-12-09T23:20:00.129Z,989.74
2022-12-09T23:25:00.128Z,989.89
2022-12-09T23:30:00.178Z,989.85
2022-12-09T23:35:03.145Z,989.91
2022-12-09T23:40:00.152Z,989.93
2022-12-09T23:45:00.151Z,989.95
2022-12-09T23:50:00.164Z,989.92
2022-12-09T23:55:04.201Z,989.95
